Time;durP1;ratioP1;P1;durP2;ratioP2;P2;SDS_P1;SDS_P2;PMS_P1;PMS_P2;Temp;Humidity;BMP_temperature;BMP_pressure;BME280_temperature;BME280_humidity;BME280_pressure;Samples;Min_cycle;Max_cycle;Signal;HPM_P1;HPM_P2
2023/10/10 00:01:42;;;;;;;1.95;0.30;;;;;;;;;;9817058;28;20230;-73
2023/10/10 00:06:44;;;;;;;0.30;0.30;;;;;;;;;;9787272;28;20302;-74
2023/10/10 00:11:45;;;;;;;1.90;0.60;;;;;;;;;;9773849;28;21274;-74
2023/10/10 00:16:48;;;;;;;0.43;0.32;;;;;;;;;;9789968;28;20233;-74
2023/10/10 00:21:54;;;;;;;0.35;0.25;;;;;;;;;;10149267;28;20215;-75
2023/10/10 00:26:58;;;;;;;0.52;0.45;;;;;;;;;;10406675;28;20588;-75
2023/10/10 00:32:05;;;;;;;0.80;0.30;;;;;;;;;;10396213;28;20268;-75
2023/10/10 00:37:13;;;;;;;1.30;0.40;;;;;;;;;;10413880;28;20333;-77
2023/10/10 00:42:19;;;;;;;0.52;0.50;;;;;;;;;;10431012;28;20689;-78
2023/10/10 00:47:24;;;;;;;1.23;0.30;;;;;;;;;;10446004;28;20258;-76
2023/10/10 00:52:26;;;;;;;0.30;0.30;;;;;;;;;;10419032;28;20219;-78
2023/10/10 00:57:33;;;;;;;0.30;0.30;;;;;;;;;;10430298;28;20276;-76
2023/10/10 01:02:34;;;;;;;1.35;0.43;;;;;;;;;;10412030;28;20227;-76
2023/10/10 01:07:36;;;;;;;2.10;0.80;;;;;;;;;;10411922;28;20294;-75
2023/10/10 01:12:39;;;;;;;1.80;0.60;;;;;;;;;;10412299;28;20296;-75
2023/10/10 01:17:40;;;;;;;0.40;0.40;;;;;;;;;;10393651;28;20308;-76
2023/10/10 01:22:46;;;;;;;0.40;0.40;;;;;;;;;;10428462;28;20280;-76
2023/10/10 01:27:47;;;;;;;0.30;0.30;;;;;;;;;;10410303;28;20722;-76
2023/10/10 01:32:50;;;;;;;0.30;0.30;;;;;;;;;;10409062;28;20217;-75
2023/10/10 01:37:54;;;;;;;0.45;0.20;;;;;;;;;;10411597;28;20285;-75
2023/10/10 01:42:59;;;;;;;0.32;0.20;;;;;;;;;;10387749;28;20227;-75
2023/10/10 01:48:08;;;;;;;0.77;0.30;;;;;;;;;;10411362;28;20215;-76
2023/10/10 01:53:10;;;;;;;2.08;0.45;;;;;;;;;;10431313;28;20599;-76
2023/10/10 01:58:12;;;;;;;1.17;0.35;;;;;;;;;;10427781;28;20229;-75
2023/10/10 02:03:13;;;;;;;0.88;0.40;;;;;;;;;;10416753;28;20310;-75
2023/10/10 02:08:21;;;;;;;1.48;0.50;;;;;;;;;;10440134;28;20223;-75
2023/10/10 02:13:25;;;;;;;0.30;0.30;;;;;;;;;;10415020;28;20647;-75
2023/10/10 02:18:40;;;;;;;0.75;0.50;;;;;;;;;;10436394;28;20222;-75
2023/10/10 02:23:44;;;;;;;0.63;0.47;;;;;;;;;;10436671;28;20210;-75
2023/10/10 02:28:49;;;;;;;0.98;0.40;;;;;;;;;;10410114;28;20214;-75
2023/10/10 02:33:58;;;;;;;1.55;0.60;;;;;;;;;;10417182;28;20708;-77
2023/10/10 02:39:18;;;;;;;0.60;0.57;;;;;;;;;;10394939;28;20221;-75
2023/10/10 02:44:57;;;;;;;0.85;0.60;;;;;;;;;;9899606;28;21434;-75
2023/10/10 02:49:48;;;;;;;0.50;0.50;;;;;;;;;;9783119;28;22137;-75
2023/10/10 02:54:55;;;;;;;1.27;0.57;;;;;;;;;;9818829;28;21606;-75
2023/10/10 03:00:15;;;;;;;1.75;0.70;;;;;;;;;;9806201;28;20227;-74
2023/10/10 03:05:20;;;;;;;1.98;0.70;;;;;;;;;;9799683;28;20324;-75
2023/10/10 03:10:41;;;;;;;2.03;0.73;;;;;;;;;;9772745;28;20245;-75
2023/10/10 03:15:51;;;;;;;0.70;0.70;;;;;;;;;;9765891;28;20206;-74
2023/10/10 03:26:06;;;;;;;1.23;0.88;;;;;;;;;;9814230;28;20234;-76
2023/10/10 03:31:11;;;;;;;0.90;0.90;;;;;;;;;;9879623;28;20627;-74
2023/10/10 03:36:23;;;;;;;0.90;0.90;;;;;;;;;;9868280;28;21435;-75
2023/10/10 05:28:10;;;;;;;8.10;2.50;;;;;;;;;;10411316;28;20222;-78
2023/10/10 05:33:12;;;;;;;3.10;2.70;;;;;;;;;;10424370;28;21923;-78
2023/10/10 05:38:16;;;;;;;3.08;2.88;;;;;;;;;;10417888;28;20781;-77
2023/10/10 05:43:19;;;;;;;2.38;2.17;;;;;;;;;;10420402;28;20222;-77
2023/10/10 05:48:20;;;;;;;2.88;2.25;;;;;;;;;;10423695;28;20230;-77
2023/10/10 05:53:21;;;;;;;3.05;2.35;;;;;;;;;;10434227;28;25771;-77
2023/10/10 05:58:22;;;;;;;2.63;2.53;;;;;;;;;;10434567;28;20353;-77
2023/10/10 06:03:23;;;;;;;2.35;2.25;;;;;;;;;;10401049;28;20229;-77
2023/10/10 06:08:25;;;;;;;2.50;2.10;;;;;;;;;;10437272;28;20258;-77
2023/10/10 06:13:29;;;;;;;2.50;2.30;;;;;;;;;;10431438;28;20301;-78
2023/10/10 06:18:30;;;;;;;2.05;1.90;;;;;;;;;;10421236;28;20349;-78
2023/10/10 06:23:33;;;;;;;0.77;0.77;;;;;;;;;;10418981;28;20211;-78
2023/10/10 06:28:45;;;;;;;0.90;0.50;;;;;;;;;;10407652;28;21592;-77
2023/10/10 06:33:52;;;;;;;3.00;0.60;;;;;;;;;;10416974;28;20238;-78
2023/10/10 06:39:18;;;;;;;1.85;0.40;;;;;;;;;;10435461;28;20543;-77
2023/10/10 06:44:32;;;;;;;2.10;0.60;;;;;;;;;;9867601;28;20353;-75
2023/10/10 06:49:43;;;;;;;2.65;0.68;;;;;;;;;;9771789;28;22064;-75
2023/10/10 06:54:45;;;;;;;0.40;0.40;;;;;;;;;;9752143;28;21036;-74
2023/10/10 06:59:46;;;;;;;0.90;0.45;;;;;;;;;;9730098;28;20284;-74
2023/10/10 07:04:53;;;;;;;0.55;0.55;;;;;;;;;;9725856;28;21051;-76
2023/10/10 07:09:57;;;;;;;0.60;0.55;;;;;;;;;;9740964;28;21466;-74
2023/10/10 07:15:00;;;;;;;1.05;1.05;;;;;;;;;;9748221;28;21782;-75
2023/10/10 07:25:07;;;;;;;0.82;0.82;;;;;;;;;;9772339;28;21582;-74
2023/10/10 07:30:15;;;;;;;0.50;0.50;;;;;;;;;;9742016;28;22224;-74
2023/10/10 07:35:19;;;;;;;1.30;0.80;;;;;;;;;;9768605;28;21683;-74
2023/10/10 07:40:21;;;;;;;1.15;0.85;;;;;;;;;;9744889;28;20919;-74
2023/10/10 07:45:33;;;;;;;1.48;0.90;;;;;;;;;;9713594;28;21789;-75
2023/10/10 07:50:35;;;;;;;1.45;0.60;;;;;;;;;;9734955;28;20935;-73
2023/10/10 08:01:16;;;;;;;0.80;0.80;;;;;;;;;;9673394;28;20477;-74
2023/10/10 08:06:24;;;;;;;1.17;0.70;;;;;;;;;;9733557;28;20315;-74
2023/10/10 08:11:35;;;;;;;0.90;0.90;;;;;;;;;;9809535;28;20218;-76
2023/10/10 08:16:38;;;;;;;5.93;1.17;;;;;;;;;;10431977;28;20660;-75
2023/10/10 08:21:48;;;;;;;1.67;1.17;;;;;;;;;;10396442;28;20215;-75
2023/10/10 08:26:51;;;;;;;1.48;1.30;;;;;;;;;;10431209;28;20215;-75
2023/10/10 08:31:52;;;;;;;2.83;1.83;;;;;;;;;;10403664;28;20297;-79
2023/10/10 08:37:02;;;;;;;4.28;1.55;;;;;;;;;;10431364;28;20675;-77
2023/10/10 08:42:05;;;;;;;3.33;1.30;;;;;;;;;;10393259;28;20266;-78
2023/10/10 08:47:07;;;;;;;7.20;1.58;;;;;;;;;;10414816;28;20294;-77
2023/10/10 08:52:08;;;;;;;6.32;2.13;;;;;;;;;;10393987;28;20226;-75
2023/10/10 08:57:10;;;;;;;2.03;1.00;;;;;;;;;;10425066;28;20356;-73
2023/10/10 09:02:17;;;;;;;2.08;0.70;;;;;;;;;;10430711;28;20218;-75
2023/10/10 09:07:27;;;;;;;1.85;0.63;;;;;;;;;;10430387;28;20297;-75
2023/10/10 09:12:28;;;;;;;0.98;0.98;;;;;;;;;;10426475;28;20800;-75
2023/10/10 09:17:35;;;;;;;1.88;0.90;;;;;;;;;;10409775;28;20214;-75
2023/10/10 09:22:43;;;;;;;1.00;0.90;;;;;;;;;;10410884;28;20683;-75
2023/10/10 09:27:59;;;;;;;2.05;0.82;;;;;;;;;;10425177;28;20597;-75
2023/10/10 09:33:23;;;;;;;3.17;1.60;;;;;;;;;;10403346;28;20627;-75
2023/10/10 09:38:27;;;;;;;1.45;0.80;;;;;;;;;;10429451;28;20345;-75
2023/10/10 09:43:35;;;;;;;1.90;1.00;;;;;;;;;;10407846;28;20264;-74
2023/10/10 09:53:44;;;;;;;0.90;0.90;;;;;;;;;;10408201;28;20246;-78
2023/10/10 09:58:53;;;;;;;1.17;0.82;;;;;;;;;;10393379;28;20230;-75
2023/10/10 10:04:03;;;;;;;0.88;0.80;;;;;;;;;;10408658;28;20214;-75
2023/10/10 10:09:19;;;;;;;1.00;1.00;;;;;;;;;;10409526;28;20217;-75
2023/10/10 10:14:28;;;;;;;18.77;2.42;;;;;;;;;;10433116;28;20213;-77
2023/10/10 10:19:33;;;;;;;1.08;1.08;;;;;;;;;;10434466;28;20222;-78
2023/10/10 10:24:47;;;;;;;7.03;2.10;;;;;;;;;;10436567;28;20842;-77
2023/10/10 10:29:54;;;;;;;20.77;5.13;;;;;;;;;;10129618;28;21285;-74
2023/10/10 10:34:57;;;;;;;1.70;1.60;;;;;;;;;;9733727;28;21562;-77
2023/10/10 10:45:23;;;;;;;2.03;1.92;;;;;;;;;;9771603;28;20881;-74
2023/10/10 10:50:40;;;;;;;1.63;1.52;;;;;;;;;;9746587;28;20953;-74
2023/10/10 10:55:52;;;;;;;1.77;1.77;;;;;;;;;;9778067;28;20377;-73
2023/10/10 11:01:07;;;;;;;2.47;1.80;;;;;;;;;;9721898;28;20849;-77
2023/10/10 11:06:09;;;;;;;2.80;1.60;;;;;;;;;;9763325;28;21765;-76
2023/10/10 11:16:37;;;;;;;3.92;1.77;;;;;;;;;;9762550;28;21825;-75
2023/10/10 11:21:48;;;;;;;5.03;2.60;;;;;;;;;;9738152;28;21899;-74
2023/10/10 11:26:56;;;;;;;12.88;3.45;;;;;;;;;;9771890;28;21382;-74
2023/10/10 11:32:07;;;;;;;1.95;1.75;;;;;;;;;;9757173;28;22442;-74
2023/10/10 11:37:14;;;;;;;1.73;1.73;;;;;;;;;;9770830;28;20218;-74
2023/10/10 11:42:26;;;;;;;2.42;2.33;;;;;;;;;;9745518;28;21163;-74
2023/10/10 11:47:28;;;;;;;1.80;1.80;;;;;;;;;;9776870;28;20347;-77
2023/10/10 11:52:29;;;;;;;1.85;1.73;;;;;;;;;;9741306;28;21089;-75
2023/10/10 11:57:33;;;;;;;2.17;2.05;;;;;;;;;;9759271;28;21526;-75
2023/10/10 12:02:40;;;;;;;2.35;1.92;;;;;;;;;;9727765;28;22326;-75
2023/10/10 12:07:41;;;;;;;2.45;2.03;;;;;;;;;;9842796;28;20750;-77
2023/10/10 12:12:45;;;;;;;3.20;2.80;;;;;;;;;;10430406;28;20210;-77
2023/10/10 12:17:47;;;;;;;3.70;2.72;;;;;;;;;;10430301;28;20250;-76
2023/10/10 12:22:48;;;;;;;4.97;3.13;;;;;;;;;;10431335;28;20305;-77
2023/10/10 12:27:49;;;;;;;7.22;2.55;;;;;;;;;;10394847;28;20711;-76
2023/10/10 12:32:50;;;;;;;3.08;2.80;;;;;;;;;;10424610;28;20206;-76
2023/10/10 12:38:01;;;;;;;3.90;2.72;;;;;;;;;;10424581;28;20210;-75
2023/10/10 12:43:02;;;;;;;3.10;2.85;;;;;;;;;;10412032;28;20230;-76
2023/10/10 12:48:13;;;;;;;137.63;12.13;;;;;;;;;;10427789;28;20261;-76
2023/10/10 12:53:15;;;;;;;2.88;2.78;;;;;;;;;;10412116;28;20665;-75
2023/10/10 12:58:19;;;;;;;3.25;2.55;;;;;;;;;;10409368;28;20249;-77
2023/10/10 13:03:27;;;;;;;2.47;2.38;;;;;;;;;;10424724;28;20324;-77
2023/10/10 13:08:38;;;;;;;3.15;2.83;;;;;;;;;;10392249;28;20210;-75
2023/10/10 13:13:45;;;;;;;5.10;2.42;;;;;;;;;;10425347;28;20727;-76
2023/10/10 13:18:47;;;;;;;2.92;2.72;;;;;;;;;;10430788;28;20238;-75
2023/10/10 13:23:52;;;;;;;2.40;2.30;;;;;;;;;;10402766;28;20292;-75
2023/10/10 13:28:54;;;;;;;4.55;2.65;;;;;;;;;;10395795;28;20218;-75
2023/10/10 13:33:54;;;;;;;3.25;3.05;;;;;;;;;;10411681;28;20218;-74
2023/10/10 13:39:05;;;;;;;2.90;2.67;;;;;;;;;;10394939;28;20218;-75
2023/10/10 13:44:06;;;;;;;2.92;2.72;;;;;;;;;;10409041;28;20847;-77
2023/10/10 13:49:08;;;;;;;4.00;2.35;;;;;;;;;;10405993;28;20309;-76
2023/10/10 13:54:13;;;;;;;1.77;1.75;;;;;;;;;;10436516;28;20268;-76
2023/10/10 13:59:17;;;;;;;4.78;2.17;;;;;;;;;;10428914;28;20841;-75
2023/10/10 14:04:24;;;;;;;2.67;2.47;;;;;;;;;;10434856;28;20227;-76
2023/10/10 14:09:25;;;;;;;3.20;3.00;;;;;;;;;;10358077;28;20533;-75
2023/10/10 14:14:26;;;;;;;2.42;2.33;;;;;;;;;;9833457;28;21119;-75
2023/10/10 14:19:27;;;;;;;2.70;2.50;;;;;;;;;;9757931;28;21858;-74
2023/10/10 14:24:30;;;;;;;2.65;2.50;;;;;;;;;;9732871;28;20223;-76
2023/10/10 14:29:41;;;;;;;2.20;2.00;;;;;;;;;;9743562;28;21483;-74
2023/10/10 14:34:44;;;;;;;2.47;2.35;;;;;;;;;;9765312;28;20695;-74
2023/10/10 14:39:45;;;;;;;2.38;2.03;;;;;;;;;;9739807;28;20223;-76
2023/10/10 14:44:46;;;;;;;3.40;3.20;;;;;;;;;;9764133;28;21962;-75
2023/10/10 14:49:49;;;;;;;2.75;2.63;;;;;;;;;;9773158;28;20312;-74
2023/10/10 14:54:51;;;;;;;2.95;2.75;;;;;;;;;;9729573;28;20732;-75
2023/10/10 14:59:55;;;;;;;3.30;3.10;;;;;;;;;;9736444;28;20327;-75
2023/10/10 15:04:58;;;;;;;2.65;2.53;;;;;;;;;;9729651;28;20230;-73
2023/10/10 15:09:59;;;;;;;2.35;2.20;;;;;;;;;;9746599;28;20448;-73
2023/10/10 15:15:00;;;;;;;2.92;2.72;;;;;;;;;;9738007;28;21889;-74
2023/10/10 15:20:05;;;;;;;2.65;2.53;;;;;;;;;;9735670;28;20816;-73
2023/10/10 15:25:07;;;;;;;8.02;7.03;;;;;;;;;;9746123;28;20219;-75
2023/10/10 15:30:09;;;;;;;3.40;2.35;;;;;;;;;;9736671;28;20329;-73
2023/10/10 15:35:11;;;;;;;3.45;2.72;;;;;;;;;;9758621;28;22375;-74
2023/10/10 15:40:22;;;;;;;5.28;2.60;;;;;;;;;;9725059;28;20893;-73
2023/10/10 15:45:23;;;;;;;4.55;2.53;;;;;;;;;;9698487;28;20308;-73
2023/10/10 15:50:24;;;;;;;2.85;2.53;;;;;;;;;;9707456;28;20354;-74
2023/10/10 15:55:25;;;;;;;2.55;2.45;;;;;;;;;;9720557;28;20574;-75
2023/10/10 16:00:32;;;;;;;3.97;3.63;;;;;;;;;;9723189;28;20898;-73
2023/10/10 16:05:39;;;;;;;2.63;2.63;;;;;;;;;;10070970;28;20226;-74
2023/10/10 16:10:40;;;;;;;2.22;2.13;;;;;;;;;;10425605;28;20227;-75
2023/10/10 16:15:41;;;;;;;3.22;2.50;;;;;;;;;;10412411;28;20210;-76
2023/10/10 16:20:43;;;;;;;1.85;1.75;;;;;;;;;;10406368;28;20214;-77
2023/10/10 16:25:44;;;;;;;2.30;2.17;;;;;;;;;;10425785;28;20630;-76
2023/10/10 16:30:45;;;;;;;2.50;2.45;;;;;;;;;;10405595;28;20221;-76
2023/10/10 16:35:47;;;;;;;3.70;3.00;;;;;;;;;;10383960;28;20238;-76
2023/10/10 16:40:50;;;;;;;3.85;3.10;;;;;;;;;;10431859;28;20226;-75
2023/10/10 16:45:51;;;;;;;3.65;3.38;;;;;;;;;;10425484;28;20225;-76
2023/10/10 16:50:52;;;;;;;4.20;3.90;;;;;;;;;;10407500;28;20211;-76
2023/10/10 16:55:53;;;;;;;4.20;3.83;;;;;;;;;;10395326;28;20217;-76
2023/10/10 17:01:00;;;;;;;8.07;3.55;;;;;;;;;;10402166;28;20211;-77
2023/10/10 17:06:01;;;;;;;4.22;3.83;;;;;;;;;;10422458;28;20218;-77
2023/10/10 17:11:12;;;;;;;4.72;3.90;;;;;;;;;;10423692;28;20215;-75
2023/10/10 17:16:14;;;;;;;3.97;3.67;;;;;;;;;;10411402;28;20219;-76
2023/10/10 17:21:19;;;;;;;5.35;3.67;;;;;;;;;;10416641;28;20218;-75
2023/10/10 17:26:20;;;;;;;3.85;3.50;;;;;;;;;;10415934;28;20214;-75
2023/10/10 17:31:26;;;;;;;4.90;4.45;;;;;;;;;;10401397;28;20310;-76
2023/10/10 17:36:27;;;;;;;5.82;5.10;;;;;;;;;;10418444;28;20336;-75
2023/10/10 17:41:28;;;;;;;5.65;4.85;;;;;;;;;;10421582;28;20802;-76
2023/10/10 17:46:31;;;;;;;6.07;5.13;;;;;;;;;;10392748;28;20253;-76
2023/10/10 17:51:33;;;;;;;5.97;5.45;;;;;;;;;;10415426;28;20713;-76
2023/10/10 17:56:34;;;;;;;6.57;5.47;;;;;;;;;;10400580;28;20305;-75
2023/10/10 18:01:35;;;;;;;5.32;4.82;;;;;;;;;;10406373;28;20305;-74
2023/10/10 18:06:36;;;;;;;8.45;6.40;;;;;;;;;;10376837;28;20752;-76
2023/10/10 18:11:37;;;;;;;10.93;6.38;;;;;;;;;;10375281;28;20305;-76
2023/10/10 18:16:39;;;;;;;10.65;5.95;;;;;;;;;;10204733;28;20619;-76
2023/10/10 18:21:41;;;;;;;8.05;6.53;;;;;;;;;;9664803;28;20226;-75
2023/10/10 18:26:42;;;;;;;9.73;7.00;;;;;;;;;;9699303;28;21012;-75
2023/10/10 18:31:43;;;;;;;15.07;6.80;;;;;;;;;;9707442;28;20949;-75
2023/10/10 18:36:46;;;;;;;11.77;7.22;;;;;;;;;;9704458;28;22729;-75
2023/10/10 18:41:47;;;;;;;10.07;7.53;;;;;;;;;;9708034;28;20345;-76
2023/10/10 18:46:49;;;;;;;7.15;6.47;;;;;;;;;;9677321;28;20231;-74
2023/10/10 18:51:53;;;;;;;8.20;7.15;;;;;;;;;;9676253;28;22233;-75
2023/10/10 18:56:55;;;;;;;8.85;6.47;;;;;;;;;;9657724;28;22269;-75
2023/10/10 19:01:57;;;;;;;6.60;6.00;;;;;;;;;;9681500;28;20229;-75
2023/10/10 19:06:58;;;;;;;5.80;5.22;;;;;;;;;;9678632;28;21231;-75
2023/10/10 19:11:59;;;;;;;7.18;5.72;;;;;;;;;;9685699;28;20304;-77
2023/10/10 19:17:00;;;;;;;5.53;4.82;;;;;;;;;;9692148;28;22698;-77
2023/10/10 19:22:04;;;;;;;8.18;5.63;;;;;;;;;;9682839;28;20424;-74
2023/10/10 19:27:10;;;;;;;8.10;5.50;;;;;;;;;;9709003;28;21034;-78
2023/10/10 19:32:13;;;;;;;9.02;6.75;;;;;;;;;;9709491;28;20890;-75
2023/10/10 19:37:14;;;;;;;8.82;6.60;;;;;;;;;;9712059;28;20253;-74
2023/10/10 19:42:17;;;;;;;6.22;5.45;;;;;;;;;;9706476;28;22732;-75
2023/10/10 19:47:19;;;;;;;6.68;5.60;;;;;;;;;;9712977;28;20316;-74
2023/10/10 19:52:20;;;;;;;7.97;4.95;;;;;;;;;;9689435;28;22343;-75
2023/10/10 19:57:21;;;;;;;11.15;6.15;;;;;;;;;;9726048;28;21406;-75
2023/10/10 20:02:22;;;;;;;5.35;4.90;;;;;;;;;;10194702;28;20741;-75
2023/10/10 20:07:23;;;;;;;8.88;6.57;;;;;;;;;;10397740;28;20218;-76
2023/10/10 20:12:25;;;;;;;9.52;5.65;;;;;;;;;;10405250;28;20210;-75
2023/10/10 20:17:26;;;;;;;7.65;5.45;;;;;;;;;;10409822;28;20214;-76
2023/10/10 20:22:27;;;;;;;7.30;5.88;;;;;;;;;;10398992;28;20846;-75
2023/10/10 20:27:30;;;;;;;6.15;5.47;;;;;;;;;;10426028;28;20218;-76
2023/10/10 20:32:33;;;;;;;8.23;6.80;;;;;;;;;;10432456;28;20716;-76
2023/10/10 20:37:34;;;;;;;9.27;6.07;;;;;;;;;;10427263;28;20692;-76
2023/10/10 20:42:36;;;;;;;7.35;5.82;;;;;;;;;;10429975;28;20227;-76
2023/10/10 20:47:37;;;;;;;5.85;5.25;;;;;;;;;;10430606;28;20217;-76
2023/10/10 20:52:41;;;;;;;9.15;5.47;;;;;;;;;;10410432;28;20207;-76
2023/10/10 20:57:42;;;;;;;7.88;5.97;;;;;;;;;;10412785;28;20677;-76
2023/10/10 21:02:43;;;;;;;7.10;5.40;;;;;;;;;;10434290;28;20229;-76
2023/10/10 21:07:47;;;;;;;9.57;5.60;;;;;;;;;;10428380;28;20211;-76
2023/10/10 21:12:50;;;;;;;7.63;5.90;;;;;;;;;;10397367;28;20598;-76
2023/10/10 21:17:52;;;;;;;10.80;6.60;;;;;;;;;;10414031;28;20214;-75
2023/10/10 21:22:57;;;;;;;8.68;6.30;;;;;;;;;;10416297;28;20598;-75
2023/10/10 21:27:58;;;;;;;8.07;5.80;;;;;;;;;;10393487;28;20225;-77
2023/10/10 21:33:00;;;;;;;5.40;4.97;;;;;;;;;;10431665;28;20214;-76
2023/10/10 21:38:01;;;;;;;5.78;4.32;;;;;;;;;;10409420;28;20696;-75
2023/10/10 21:43:03;;;;;;;3.95;3.65;;;;;;;;;;10410090;28;20231;-76
2023/10/10 21:48:04;;;;;;;4.05;3.75;;;;;;;;;;10409553;28;20203;-76
2023/10/10 21:53:05;;;;;;;7.50;3.75;;;;;;;;;;10386868;28;20265;-76
2023/10/10 21:58:07;;;;;;;4.13;3.83;;;;;;;;;;10409626;28;20298;-76
2023/10/10 22:03:08;;;;;;;4.75;2.97;;;;;;;;;;10408707;28;20227;-76
2023/10/10 22:08:10;;;;;;;5.78;3.25;;;;;;;;;;10398108;28;20210;-76
2023/10/10 22:13:11;;;;;;;5.75;3.63;;;;;;;;;;9811663;28;20250;-75
2023/10/10 22:18:12;;;;;;;3.90;3.58;;;;;;;;;;9749307;28;21783;-75
2023/10/10 22:23:15;;;;;;;3.65;3.45;;;;;;;;;;9742182;28;20250;-74
2023/10/10 22:28:16;;;;;;;3.13;2.95;;;;;;;;;;9744004;28;20234;-75
2023/10/10 22:33:18;;;;;;;3.75;3.35;;;;;;;;;;9772806;28;22014;-74
2023/10/10 22:38:20;;;;;;;3.92;3.55;;;;;;;;;;9732562;28;20234;-74
2023/10/10 22:43:21;;;;;;;4.10;2.83;;;;;;;;;;9766660;28;20232;-75
2023/10/10 22:48:23;;;;;;;6.32;3.58;;;;;;;;;;9768582;28;21394;-75
2023/10/10 22:53:24;;;;;;;4.38;3.15;;;;;;;;;;9742594;28;21936;-75
2023/10/10 22:58:27;;;;;;;5.75;3.50;;;;;;;;;;9761326;28;20222;-75
2023/10/10 23:03:28;;;;;;;4.35;3.50;;;;;;;;;;9746645;28;20320;-74
2023/10/10 23:08:30;;;;;;;6.25;2.88;;;;;;;;;;9741645;28;21346;-76
2023/10/10 23:13:31;;;;;;;8.38;3.30;;;;;;;;;;9734477;28;20223;-75
2023/10/10 23:18:35;;;;;;;4.25;3.13;;;;;;;;;;9743378;28;22397;-76
2023/10/10 23:23:36;;;;;;;3.45;2.60;;;;;;;;;;9747916;28;21637;-77
2023/10/10 23:28:38;;;;;;;5.57;3.08;;;;;;;;;;9716201;28;20345;-77
2023/10/10 23:33:40;;;;;;;2.85;2.47;;;;;;;;;;9770834;28;20250;-76
2023/10/10 23:38:44;;;;;;;2.83;2.63;;;;;;;;;;9721213;28;21629;-75
2023/10/10 23:43:46;;;;;;;3.50;2.60;;;;;;;;;;9771077;28;22092;-75
2023/10/10 23:48:47;;;;;;;3.05;2.78;;;;;;;;;;9762963;28;20282;-77
2023/10/10 23:53:48;;;;;;;3.10;2.78;;;;;;;;;;9783687;28;22051;-76
2023/10/10 23:58:51;;;;;;;8.50;3.50;;;;;;;;;;10247529;28;20317;-76
